createdAt,value
2023-04-05T00:02:44.426Z,9.27
2023-04-05T00:05:12.151Z,9.13
2023-04-05T00:07:39.703Z,8.88
2023-04-05T00:10:25.765Z,9.60
2023-04-05T00:12:53.078Z,9.32
2023-04-05T00:15:20.099Z,8.90
2023-04-05T00:17:47.360Z,9.75
2023-04-05T00:20:14.838Z,8.88
2023-04-05T00:22:44.761Z,9.30
2023-04-05T00:25:12.521Z,8.95
2023-04-05T00:27:40.010Z,9.07
2023-04-05T00:30:07.729Z,8.85
2023-04-05T00:32:34.793Z,8.88
2023-04-05T00:35:01.852Z,8.68
2023-04-05T00:37:29.636Z,8.70
2023-04-05T00:39:57.731Z,9.05
2023-04-05T00:42:24.769Z,9.25
2023-04-05T00:44:51.804Z,9.10
2023-04-05T00:47:18.814Z,8.48
2023-04-05T00:49:46.624Z,8.60
2023-04-05T00:52:15.469Z,9.20
2023-04-05T00:54:43.617Z,9.13
2023-04-05T00:57:11.171Z,9.13
2023-04-05T00:59:38.237Z,9.13
2023-04-05T01:02:25.536Z,8.48
2023-04-05T01:05:05.373Z,9.38
2023-04-05T01:07:38.204Z,8.90
2023-04-05T01:10:09.585Z,8.00
2023-04-05T01:12:38.821Z,8.85
2023-04-05T01:15:06.586Z,8.82
2023-04-05T01:17:37.035Z,9.50
2023-04-05T01:20:11.989Z,9.38
2023-04-05T01:23:11.468Z,8.82
2023-04-05T01:25:59.929Z,9.77
2023-04-05T01:28:47.379Z,9.00
2023-04-05T01:31:32.109Z,10.00
2023-04-05T01:34:07.315Z,9.85
2023-04-05T01:36:43.897Z,9.13
2023-04-05T01:39:15.671Z,8.93
2023-04-05T01:41:42.746Z,9.65
2023-04-05T01:44:09.786Z,9.00
2023-04-05T01:46:36.960Z,8.85
2023-04-05T01:49:05.471Z,8.85
2023-04-05T01:51:33.302Z,9.88
2023-04-05T01:54:00.467Z,9.48
2023-04-05T01:56:27.552Z,9.55
2023-04-05T01:58:54.612Z,9.93
2023-04-05T02:01:21.640Z,9.70
2023-04-05T02:03:48.813Z,9.50
2023-04-05T02:06:16.450Z,8.77
2023-04-05T02:08:43.992Z,9.75
2023-04-05T02:11:11.335Z,9.60
2023-04-05T02:13:38.382Z,8.98
2023-04-05T02:16:05.502Z,9.75
2023-04-05T02:18:32.628Z,10.25
2023-04-05T02:21:04.804Z,9.75
2023-04-05T02:23:32.896Z,10.27
2023-04-05T02:26:00.371Z,10.63
2023-04-05T02:28:27.659Z,9.95
2023-04-05T02:30:55.604Z,10.40
2023-04-05T02:33:26.012Z,11.18
2023-04-05T02:35:54.270Z,10.48
2023-04-05T02:38:21.450Z,9.90
2023-04-05T02:40:51.547Z,10.07
2023-04-05T02:43:18.602Z,10.05
2023-04-05T02:45:47.157Z,10.77
2023-04-05T02:48:14.595Z,10.60
2023-04-05T02:50:42.159Z,10.05
2023-04-05T02:53:09.825Z,9.57
2023-04-05T02:55:37.082Z,10.32
2023-04-05T02:58:04.120Z,9.48
2023-04-05T03:00:32.057Z,10.60
2023-04-05T03:02:59.288Z,9.98
2023-04-05T03:05:27.315Z,9.98
2023-04-05T03:07:54.791Z,10.05
2023-04-05T03:10:29.048Z,10.00
2023-04-05T03:12:56.085Z,9.20
2023-04-05T03:15:23.051Z,9.80
2023-04-05T03:17:50.019Z,9.70
2023-04-05T03:20:17.235Z,8.75
2023-04-05T03:22:44.913Z,9.15
2023-04-05T03:25:11.956Z,9.80
2023-04-05T03:27:40.416Z,9.48
2023-04-05T03:30:08.186Z,9.60
2023-04-05T03:32:35.227Z,9.40
2023-04-05T03:35:02.309Z,9.88
2023-04-05T03:37:29.919Z,9.55
2023-04-05T03:39:57.081Z,9.07
2023-04-05T03:42:24.493Z,9.50
2023-04-05T03:44:53.319Z,10.32
2023-04-05T03:47:20.513Z,9.10
2023-04-05T03:49:47.509Z,9.02
2023-04-05T03:52:14.464Z,9.07
2023-04-05T03:54:41.499Z,8.85
2023-04-05T03:57:08.564Z,9.63
2023-04-05T03:59:35.906Z,9.65
2023-04-05T04:02:03.011Z,10.10
2023-04-05T04:04:30.037Z,9.68
2023-04-05T04:06:57.347Z,10.05
2023-04-05T04:09:25.178Z,9.73
2023-04-05T04:11:52.151Z,9.25
2023-04-05T04:14:19.135Z,9.82
2023-04-05T04:16:46.157Z,9.02
2023-04-05T04:19:13.460Z,8.95
2023-04-05T04:21:40.484Z,9.27
2023-04-05T04:24:07.613Z,9.50
2023-04-05T04:26:37.690Z,9.25
2023-04-05T04:29:06.951Z,9.25
2023-04-05T04:31:33.957Z,9.20
2023-04-05T04:34:03.368Z,9.30
2023-04-05T04:36:35.182Z,10.20
2023-04-05T04:39:05.721Z,9.65
2023-04-05T04:41:35.966Z,9.68
2023-04-05T04:44:03.181Z,10.10
2023-04-05T04:46:34.834Z,9.60
2023-04-05T04:49:06.180Z,9.30
2023-04-05T04:51:33.703Z,9.73
2023-04-05T04:54:00.856Z,9.98
2023-04-05T04:56:27.856Z,9.27
2023-04-05T04:58:57.023Z,9.65
2023-04-05T05:01:25.275Z,10.02
2023-04-05T05:03:52.843Z,10.25
2023-04-05T05:06:22.191Z,10.50
2023-04-05T05:08:49.405Z,9.75
2023-04-05T05:11:16.374Z,10.50
2023-04-05T05:13:43.423Z,10.02
2023-04-05T05:16:10.780Z,10.68
2023-04-05T05:18:38.352Z,11.20
2023-04-05T05:21:24.076Z,10.50
2023-04-05T05:23:52.252Z,10.57
2023-04-05T05:26:19.351Z,10.93
2023-04-05T05:28:48.770Z,10.65
2023-04-05T05:31:18.284Z,10.52
2023-04-05T05:33:50.197Z,10.23
2023-04-05T05:36:17.211Z,10.35
2023-04-05T05:38:44.284Z,9.68
2023-04-05T05:41:11.244Z,10.35
2023-04-05T05:43:38.247Z,9.32
2023-04-05T05:46:05.376Z,10.57
2023-04-05T05:48:33.424Z,9.68
2023-04-05T05:51:02.065Z,10.18
2023-04-05T05:53:29.428Z,10.52
2023-04-05T05:55:56.783Z,9.82
2023-04-05T05:58:23.895Z,9.63
2023-04-05T06:00:51.603Z,9.48
2023-04-05T06:03:19.480Z,10.30
2023-04-05T06:05:57.949Z,10.00
2023-04-05T06:08:25.569Z,9.20
2023-04-05T06:10:52.966Z,9.25
2023-04-05T06:13:20.556Z,8.75
2023-04-05T06:15:51.077Z,9.05
2023-04-05T06:18:18.113Z,8.75
2023-04-05T06:20:45.391Z,8.98
2023-04-05T06:23:12.601Z,8.50
2023-04-05T06:25:40.616Z,8.23
2023-04-05T06:28:07.929Z,8.70
2023-04-05T06:30:54.115Z,8.88
2023-04-05T06:33:21.288Z,7.68
2023-04-05T06:35:48.748Z,8.73
2023-04-05T06:38:15.993Z,8.07
2023-04-05T06:40:43.339Z,8.90
2023-04-05T06:43:13.253Z,7.88
2023-04-05T06:45:40.430Z,8.20
2023-04-05T06:48:08.300Z,8.88
2023-04-05T06:50:35.767Z,7.95
2023-04-05T06:53:04.741Z,8.35
2023-04-05T06:55:31.982Z,8.13
2023-04-05T06:57:58.985Z,8.43
2023-04-05T07:00:26.095Z,7.70
2023-04-05T07:02:53.335Z,8.23
2023-04-05T07:05:20.408Z,8.77
2023-04-05T07:07:48.927Z,7.95
2023-04-05T07:10:16.359Z,8.07
2023-04-05T07:12:43.355Z,7.78
2023-04-05T07:15:11.058Z,8.25
2023-04-05T07:17:38.251Z,8.50
2023-04-05T07:20:07.565Z,8.38
2023-04-05T07:22:35.754Z,8.60
2023-04-05T07:25:02.838Z,8.20
2023-04-05T07:27:31.321Z,8.07
2023-04-05T07:29:58.542Z,8.65
2023-04-05T07:32:25.989Z,8.45
2023-04-05T07:34:53.186Z,8.60
2023-04-05T07:37:20.484Z,8.57
2023-04-05T07:39:47.522Z,7.80
2023-04-05T07:42:14.504Z,8.27
2023-04-05T07:44:41.552Z,8.30
2023-04-05T07:47:08.582Z,7.85
2023-04-05T07:49:37.544Z,8.48
2023-04-05T07:52:04.756Z,8.30
2023-04-05T07:54:33.528Z,7.60
2023-04-05T07:57:01.245Z,7.85
2023-04-05T07:59:28.352Z,7.47
2023-04-05T08:01:57.235Z,8.18
2023-04-05T08:04:29.145Z,8.20
2023-04-05T08:06:56.169Z,8.23
2023-04-05T08:09:23.346Z,8.68
2023-04-05T08:11:50.691Z,8.90
2023-04-05T08:14:17.744Z,8.20
2023-04-05T08:16:44.927Z,8.13
2023-04-05T08:19:31.163Z,8.30
2023-04-05T08:21:58.404Z,8.02
2023-04-05T08:24:25.437Z,7.90
2023-04-05T08:26:52.487Z,7.28
2023-04-05T08:29:19.450Z,7.75
2023-04-05T08:31:46.919Z,7.80
2023-04-05T08:34:14.000Z,7.93
2023-04-05T08:37:02.770Z,7.28
2023-04-05T08:39:29.769Z,8.40
2023-04-05T08:42:05.668Z,7.82
2023-04-05T08:44:35.886Z,7.50
2023-04-05T08:47:03.037Z,7.05
2023-04-05T08:49:30.305Z,6.90
2023-04-05T08:52:00.969Z,6.72
2023-04-05T08:54:28.054Z,6.95
2023-04-05T08:56:56.642Z,7.80
2023-04-05T08:59:24.964Z,6.82
2023-04-05T09:01:52.880Z,7.00
2023-04-05T09:04:24.355Z,7.78
2023-04-05T09:06:52.388Z,6.80
2023-04-05T09:09:21.691Z,7.13
2023-04-05T09:11:50.027Z,6.93
2023-04-05T09:14:18.050Z,7.18
2023-04-05T09:16:45.495Z,7.20
2023-04-05T09:19:12.607Z,6.82
2023-04-05T09:22:08.767Z,7.18
2023-04-05T09:24:43.325Z,7.60
2023-04-05T09:27:15.423Z,6.75
2023-04-05T09:29:52.481Z,7.53
2023-04-05T09:32:21.282Z,6.97
2023-04-05T09:34:50.331Z,7.10
2023-04-05T09:37:21.235Z,7.05
2023-04-05T09:39:51.702Z,6.45
2023-04-05T09:42:24.983Z,6.60
2023-04-05T09:45:03.188Z,6.88
2023-04-05T09:47:33.358Z,6.70
2023-04-05T09:50:21.193Z,6.60
2023-04-05T09:52:49.405Z,6.15
2023-04-05T09:55:27.989Z,6.00
2023-04-05T09:57:55.322Z,5.90
2023-04-05T10:00:23.359Z,6.60
2023-04-05T10:02:56.194Z,5.07
2023-04-05T10:05:30.170Z,5.93
2023-04-05T10:07:57.535Z,5.85
2023-04-05T10:10:25.172Z,5.78
2023-04-05T10:12:53.873Z,5.55
2023-04-05T10:15:21.126Z,5.35
2023-04-05T10:17:53.188Z,5.57
2023-04-05T10:20:21.159Z,5.18
2023-04-05T10:22:55.124Z,5.10
2023-04-05T10:25:52.307Z,5.25
2023-04-05T10:28:37.629Z,5.35
2023-04-05T10:31:37.220Z,5.40
2023-04-05T10:34:12.872Z,5.30
2023-04-05T10:36:51.324Z,4.55
2023-04-05T10:39:40.686Z,4.68
2023-04-05T10:42:19.760Z,4.63
2023-04-05T10:45:02.586Z,4.93
2023-04-05T10:47:32.671Z,5.63
2023-04-05T10:50:03.895Z,5.68
2023-04-05T10:52:31.086Z,5.57
2023-04-05T10:55:00.295Z,5.53
2023-04-05T10:57:27.966Z,5.50
2023-04-05T10:59:55.278Z,5.70
2023-04-05T11:02:23.559Z,5.68
2023-04-05T11:04:57.289Z,5.53
2023-04-05T11:07:24.641Z,5.78
2023-04-05T11:10:05.357Z,5.85
2023-04-05T11:13:06.194Z,5.82
2023-04-05T11:15:34.525Z,5.40
2023-04-05T11:18:24.635Z,5.85
2023-04-05T11:21:06.299Z,5.00
2023-04-05T11:23:53.478Z,5.28
2023-04-05T11:26:20.556Z,5.82
2023-04-05T11:28:47.547Z,5.45
2023-04-05T11:31:16.917Z,5.40
2023-04-05T11:33:58.717Z,5.20
2023-04-05T11:36:51.922Z,5.15
2023-04-05T11:39:18.940Z,4.95
2023-04-05T11:42:09.861Z,5.15
2023-04-05T11:44:48.420Z,5.32
2023-04-05T11:47:23.767Z,5.90
2023-04-05T11:49:52.041Z,5.07
2023-04-05T11:52:21.487Z,5.20
2023-04-05T11:54:49.853Z,5.43
2023-04-05T11:57:22.857Z,5.20
2023-04-05T11:59:52.166Z,5.38
2023-04-05T12:02:20.086Z,5.55
2023-04-05T12:04:57.904Z,5.30
2023-04-05T12:07:29.578Z,4.95
2023-04-05T12:10:15.962Z,4.72
2023-04-05T12:12:45.213Z,4.40
2023-04-05T12:15:14.840Z,4.88
2023-04-05T12:17:50.443Z,4.60
2023-04-05T12:20:26.581Z,4.90
2023-04-05T12:22:56.180Z,5.18
2023-04-05T12:25:24.262Z,5.22
2023-04-05T12:27:51.681Z,5.25
2023-04-05T12:30:24.091Z,4.85
2023-04-05T12:32:55.476Z,5.07
2023-04-05T12:35:24.746Z,4.45
2023-04-05T12:37:52.382Z,5.70
2023-04-05T12:40:25.103Z,5.47
2023-04-05T12:42:52.598Z,5.10
2023-04-05T12:45:23.394Z,4.20
2023-04-05T12:47:59.650Z,4.25
2023-04-05T12:50:31.393Z,4.70
2023-04-05T12:53:05.902Z,3.60
2023-04-05T12:55:38.724Z,4.10
2023-04-05T13:00:32.941Z,4.00
2023-04-05T13:03:00.366Z,4.57
2023-04-05T13:05:29.806Z,4.38
2023-04-05T13:07:57.921Z,4.68
2023-04-05T13:10:26.152Z,4.68
2023-04-05T13:12:53.183Z,3.75
2023-04-05T13:15:20.497Z,4.13
2023-04-05T13:17:50.353Z,3.75
2023-04-05T13:20:18.244Z,4.30
2023-04-05T13:22:46.519Z,3.80
2023-04-05T13:25:15.027Z,4.22
2023-04-05T13:27:42.783Z,4.07
2023-04-05T13:30:10.351Z,3.75
2023-04-05T13:32:37.458Z,3.67
2023-04-05T13:35:05.882Z,4.03
2023-04-05T13:37:33.038Z,3.63
2023-04-05T13:40:18.768Z,4.05
2023-04-05T13:42:46.231Z,3.40
2023-04-05T13:45:13.276Z,4.13
2023-04-05T13:47:40.640Z,3.78
2023-04-05T13:50:08.214Z,4.25
2023-04-05T13:52:35.310Z,3.80
2023-04-05T13:55:03.632Z,4.00
2023-04-05T13:57:31.514Z,3.80
2023-04-05T13:59:58.676Z,4.22
2023-04-05T14:02:27.409Z,4.60
2023-04-05T14:04:54.800Z,4.43
2023-04-05T14:07:23.328Z,4.25
2023-04-05T14:09:50.488Z,4.35
2023-04-05T14:12:18.446Z,4.35
2023-04-05T14:14:45.758Z,3.97
2023-04-05T14:17:12.830Z,4.07
2023-04-05T14:19:39.939Z,4.10
2023-04-05T14:22:07.060Z,4.13
2023-04-05T14:24:34.212Z,4.65
2023-04-05T14:27:02.562Z,3.95
2023-04-05T14:29:29.809Z,3.95
2023-04-05T14:31:57.990Z,4.32
2023-04-05T14:34:25.228Z,3.90
2023-04-05T14:36:53.312Z,4.10
2023-04-05T14:39:20.756Z,4.03
2023-04-05T14:41:52.611Z,3.92
2023-04-05T14:44:20.058Z,3.97
2023-04-05T14:46:48.610Z,3.90
2023-04-05T14:49:17.614Z,4.03
2023-04-05T14:51:45.035Z,4.28
2023-04-05T14:54:12.498Z,4.15
2023-04-05T14:56:39.996Z,4.25
2023-04-05T14:59:07.464Z,4.40
2023-04-05T15:01:34.970Z,4.20
2023-04-05T15:04:02.441Z,4.05
2023-04-05T15:06:29.849Z,3.92
2023-04-05T15:08:57.353Z,4.10
2023-04-05T15:11:24.741Z,4.03
2023-04-05T15:13:52.148Z,4.47
2023-04-05T15:16:19.558Z,4.13
2023-04-05T15:18:47.619Z,3.95
2023-04-05T15:21:15.317Z,4.07
2023-04-05T15:23:42.757Z,4.00
2023-04-05T15:26:10.094Z,4.00
2023-04-05T15:28:37.486Z,4.45
2023-04-05T15:31:04.898Z,4.10
2023-04-05T15:33:32.310Z,4.03
2023-04-05T15:35:59.854Z,3.90
2023-04-05T15:38:27.546Z,4.38
2023-04-05T15:40:54.953Z,3.80
2023-04-05T15:43:22.551Z,3.83
2023-04-05T15:45:50.044Z,4.38
2023-04-05T15:48:17.497Z,3.53
2023-04-05T15:50:44.899Z,4.55
2023-04-05T15:53:12.344Z,4.45
2023-04-05T15:55:39.730Z,4.75
2023-04-05T15:58:07.748Z,3.97
2023-04-05T16:00:35.274Z,4.32
2023-04-05T16:03:03.987Z,3.88
2023-04-05T16:05:32.154Z,3.78
2023-04-05T16:07:59.937Z,3.47
2023-04-05T16:10:28.053Z,4.22
2023-04-05T16:12:55.765Z,3.85
2023-04-05T16:15:24.346Z,3.70
2023-04-05T16:17:51.996Z,3.70
2023-04-05T16:20:19.802Z,3.78
2023-04-05T16:22:47.332Z,3.65
2023-04-05T16:25:14.838Z,4.15
2023-04-05T16:27:42.356Z,4.15
2023-04-05T16:30:10.555Z,4.20
2023-04-05T16:32:38.637Z,4.15
2023-04-05T16:35:06.674Z,4.15
2023-04-05T16:37:34.372Z,5.18
2023-04-05T16:40:03.116Z,4.05
2023-04-05T16:42:30.963Z,3.88
2023-04-05T16:44:58.551Z,3.80
2023-04-05T16:47:26.413Z,4.40
2023-04-05T16:49:54.197Z,4.03
2023-04-05T16:52:22.109Z,4.60
2023-04-05T16:54:49.779Z,4.60
2023-04-05T16:57:17.380Z,4.05
2023-04-05T16:59:45.124Z,5.93
2023-04-05T17:02:12.669Z,6.47
2023-04-05T17:04:40.377Z,4.50
2023-04-05T17:07:08.083Z,4.65
2023-04-05T17:09:35.964Z,4.57
2023-04-05T17:12:04.347Z,4.55
2023-04-05T17:14:31.836Z,4.28
2023-04-05T17:16:59.341Z,4.72
2023-04-05T17:19:26.952Z,5.20
2023-04-05T17:21:54.443Z,4.85
2023-04-05T17:24:21.998Z,4.53
2023-04-05T17:26:49.593Z,4.47
2023-04-05T17:29:17.873Z,4.35
2023-04-05T17:31:45.586Z,4.65
2023-04-05T17:34:15.131Z,4.75
2023-04-05T17:36:45.253Z,5.28
2023-04-05T17:39:13.718Z,4.90
2023-04-05T17:41:41.444Z,4.40
2023-04-05T17:44:09.020Z,4.35
2023-04-05T17:46:42.847Z,4.40
2023-04-05T17:49:12.257Z,3.78
2023-04-05T17:51:39.950Z,3.88
2023-04-05T17:54:07.679Z,4.00
2023-04-05T17:56:35.549Z,3.50
2023-04-05T17:59:04.376Z,3.65
2023-04-05T18:01:32.214Z,3.70
2023-04-05T18:04:01.310Z,3.75
2023-04-05T18:06:29.132Z,4.03
2023-04-05T18:08:56.749Z,3.85
2023-04-05T18:11:25.415Z,3.72
2023-04-05T18:13:52.925Z,4.05
2023-04-05T18:16:20.740Z,4.15
2023-04-05T18:18:48.629Z,3.95
2023-04-05T18:21:16.641Z,3.50
2023-04-05T18:23:44.264Z,4.07
2023-04-05T18:26:13.926Z,3.63
2023-04-05T18:28:41.688Z,3.90
2023-04-05T18:31:10.196Z,3.67
2023-04-05T18:33:41.109Z,3.13
2023-04-05T18:36:08.736Z,2.97
2023-04-05T18:38:36.595Z,3.75
2023-04-05T18:41:04.885Z,3.08
2023-04-05T18:43:32.538Z,3.15
2023-04-05T18:46:00.154Z,3.30
2023-04-05T18:48:27.819Z,3.80
2023-04-05T18:50:55.523Z,3.78
2023-04-05T18:53:23.432Z,3.83
2023-04-05T18:55:51.931Z,3.70
2023-04-05T18:58:20.403Z,3.42
2023-04-05T19:00:50.768Z,3.72
2023-04-05T19:03:18.429Z,3.30
2023-04-05T19:05:51.307Z,3.72
2023-04-05T19:08:20.124Z,3.92
2023-04-05T19:10:47.805Z,3.95
2023-04-05T19:13:15.836Z,3.80
2023-04-05T19:15:44.978Z,4.05
2023-04-05T19:18:12.582Z,3.60
2023-04-05T19:20:40.391Z,3.70
2023-04-05T19:23:07.951Z,4.25
2023-04-05T19:25:35.523Z,3.97
2023-04-05T19:28:03.347Z,3.92
2023-04-05T19:30:30.887Z,3.80
2023-04-05T19:32:58.631Z,3.90
2023-04-05T19:35:26.317Z,3.47
2023-04-05T19:37:53.899Z,3.78
2023-04-05T19:40:21.477Z,4.20
2023-04-05T19:42:49.118Z,3.72
2023-04-05T19:45:24.279Z,3.58
2023-04-05T19:47:52.476Z,3.63
2023-04-05T19:50:48.167Z,3.63
2023-04-05T19:53:50.470Z,3.83
2023-04-05T19:56:18.667Z,3.92
2023-04-05T19:58:53.957Z,4.00
2023-04-05T20:01:41.539Z,3.95
2023-04-05T20:04:16.571Z,4.53
2023-04-05T20:06:53.349Z,3.83
2023-04-05T20:09:31.539Z,4.22
2023-04-05T20:12:02.347Z,4.32
2023-04-05T20:14:41.261Z,4.30
2023-04-05T20:17:09.261Z,4.30
2023-04-05T20:19:40.388Z,4.68
2023-04-05T20:22:09.598Z,4.60
2023-04-05T20:24:39.909Z,4.28
2023-04-05T20:27:07.792Z,4.97
2023-04-05T20:29:36.492Z,4.43
2023-04-05T20:32:06.146Z,4.32
2023-04-05T20:34:38.288Z,4.03
2023-04-05T20:37:11.467Z,4.25
2023-04-05T20:42:09.571Z,4.30
2023-04-05T20:44:37.486Z,4.90
2023-04-05T20:47:05.084Z,4.75
2023-04-05T20:49:32.683Z,7.30
2023-04-05T20:52:00.230Z,4.22
2023-04-05T20:54:27.746Z,4.75
2023-04-05T20:56:55.214Z,4.25
2023-04-05T20:59:22.935Z,4.53
2023-04-05T21:01:50.811Z,4.43
2023-04-05T21:04:18.600Z,5.05
2023-04-05T21:06:46.279Z,4.45
2023-04-05T21:09:13.978Z,4.70
2023-04-05T21:11:41.431Z,4.78
2023-04-05T21:14:09.110Z,5.65
2023-04-05T21:16:36.584Z,5.50
2023-04-05T21:19:04.131Z,5.30
2023-04-05T21:21:31.731Z,5.05
2023-04-05T21:23:59.232Z,4.88
2023-04-05T21:26:26.708Z,5.18
2023-04-05T21:28:54.357Z,4.72
2023-04-05T21:31:22.023Z,5.10
2023-04-05T21:33:49.600Z,4.97
2023-04-05T21:36:17.093Z,5.00
2023-04-05T21:38:44.748Z,4.88
2023-04-05T21:41:12.266Z,5.07
2023-04-05T21:43:40.049Z,5.15
2023-04-05T21:46:07.564Z,5.20
2023-04-05T21:48:35.197Z,5.22
2023-04-05T21:51:02.839Z,4.82
2023-04-05T21:53:30.774Z,4.65
2023-04-05T21:55:58.265Z,5.05
2023-04-05T21:58:26.731Z,4.85
2023-04-05T22:00:57.059Z,5.10
2023-04-05T22:03:24.859Z,5.03
2023-04-05T22:05:52.342Z,6.00
2023-04-05T22:08:20.099Z,4.78
2023-04-05T22:10:47.858Z,4.85
2023-04-05T22:13:15.562Z,4.60
2023-04-05T22:15:44.414Z,4.90
2023-04-05T22:18:12.040Z,4.80
2023-04-05T22:20:39.623Z,4.50
2023-04-05T22:23:07.231Z,4.93
2023-04-05T22:25:34.774Z,4.38
2023-04-05T22:28:02.506Z,4.72
2023-04-05T22:30:40.916Z,4.60
2023-04-05T22:33:08.771Z,4.32
2023-04-05T22:35:36.497Z,4.80
2023-04-05T22:38:04.120Z,4.22
2023-04-05T22:40:31.777Z,4.18
2023-04-05T22:42:59.368Z,4.63
2023-04-05T22:45:27.437Z,4.75
2023-04-05T22:47:56.288Z,4.53
2023-04-05T22:50:23.786Z,4.60
2023-04-05T22:52:51.329Z,4.30
2023-04-05T22:55:18.948Z,4.18
2023-04-05T22:57:46.737Z,4.07
2023-04-05T23:00:15.066Z,3.83
2023-04-05T23:02:42.850Z,4.25
2023-04-05T23:05:10.547Z,4.63
2023-04-05T23:07:38.076Z,4.25
2023-04-05T23:10:05.946Z,4.05
2023-04-05T23:12:33.497Z,4.28
2023-04-05T23:15:01.197Z,4.13
2023-04-05T23:17:28.775Z,4.15
2023-04-05T23:19:56.416Z,4.43
2023-04-05T23:22:23.942Z,4.05
2023-04-05T23:24:51.664Z,4.10
2023-04-05T23:27:19.136Z,4.03
2023-04-05T23:29:46.836Z,4.20
2023-04-05T23:32:14.352Z,3.80
2023-04-05T23:34:42.093Z,3.83
2023-04-05T23:37:09.626Z,4.22
2023-04-05T23:39:37.461Z,3.95
2023-04-05T23:42:05.194Z,4.00
2023-04-05T23:44:32.934Z,3.70
2023-04-05T23:47:00.784Z,3.70
2023-04-05T23:49:28.811Z,3.97
2023-04-05T23:51:56.423Z,4.20
2023-04-05T23:54:24.085Z,4.07
2023-04-05T23:56:51.746Z,3.72
2023-04-05T23:59:19.398Z,4.00
